< Cyclone 200620 2006 Season Cyclone 200801 >
Cyclone 200622 (MONICA)
General InformationDetailed Track InformationTrack Information on Google MapsList of All Images || ResourceGoogle EarthGE AnimationAtom FeedGeoJSON
Detalied Best Track Wind (Time Zone = UTC)
Year Month Day Hour Lat. Long. Wind (kt) Gust (kt) Direc. of Major Storm Axis Radius of Major Storm Axis (nm) Radius of Minor Storm Axis (nm) Direc. of Major Gale Axis Radius of Major Gale Axis (nm) Radius of Minor Gale Axis (nm) Image
2006 4 16 00 -9.4 152.5 25 45 symmetric - - symmetric - - Image
2006 4 16 06 -11.0 151.3 25 45 symmetric - - symmetric - - Image
2006 4 16 12 -11.4 151.0 25 45 symmetric - - symmetric - - Image
2006 4 16 18 -11.4 151.0 30 45 symmetric - - symmetric - - Image
2006 4 17 00 -12.2 150.5 40 55 symmetric - - symmetric - - Image
2006 4 17 06 -12.2 149.8 40 55 symmetric - - symmetric - - Image
2006 4 17 12 -12.2 149.4 45 65 symmetric - - symmetric - - Image
2006 4 17 18 -12.4 148.5 50 70 symmetric - - symmetric - - Image
2006 4 18 00 -12.6 148.3 60 85 symmetric - - symmetric - - Image
2006 4 18 06 -12.9 146.5 65 90 symmetric - - symmetric - - Image
2006 4 18 12 -12.6 145.4 70 100 symmetric - - symmetric - - Image
2006 4 18 18 -12.8 144.8 75 105 symmetric - - symmetric - - Image
2006 4 19 00 -12.9 144.3 75 105 symmetric - - symmetric - - Image
2006 4 19 06 -13.1 143.4 75 105 symmetric - - symmetric - - Image
2006 4 19 12 -13.4 142.6 60 85 symmetric - - symmetric - - Image
2006 4 19 18 -13.4 141.9 45 65 symmetric - - symmetric - - Image
2006 4 20 00 -13.7 141.3 40 55 symmetric - - symmetric - - Image
2006 4 20 06 -14.0 140.7 40 55 symmetric - - symmetric - - Image
2006 4 20 12 -13.7 140.5 50 70 symmetric - - symmetric - - Image
2006 4 20 18 -13.6 140.2 55 80 symmetric - - symmetric - - Image
2006 4 21 00 -13.4 140.1 65 95 symmetric - - symmetric - - Image
2006 4 21 06 -13.2 139.9 80 110 symmetric - - symmetric - - Image
2006 4 21 12 -13.0 139.7 90 125 symmetric - - symmetric - - Image
2006 4 21 18 -12.7 139.6 90 125 symmetric - - symmetric - - Image
2006 4 22 00 -12.5 139.4 100 140 symmetric - - symmetric - - Image
2006 4 22 06 -12.4 139.2 110 155 symmetric - - symmetric - - Image
2006 4 22 12 -12.0 138.8 125 175 symmetric - - symmetric - - Image
2006 4 22 18 -11.7 138.4 125 175 symmetric - - symmetric - - Image
2006 4 23 00 -11.3 138.0 125 175 symmetric - - symmetric - - Image
2006 4 23 06 -11.3 137.4 135 195 symmetric - - symmetric - - Image
2006 4 23 12 -11.2 137.0 135 195 symmetric - - symmetric - - Image
2006 4 23 18 -11.2 135.8 135 195 symmetric - - symmetric - - Image
2006 4 24 00 -11.3 135.2 135 195 symmetric - - symmetric - - Image
2006 4 24 06 -11.6 134.4 135 195 symmetric - - symmetric - - Image
2006 4 24 09 -11.7 134.0 135 195 symmetric - - symmetric - - Image
2006 4 24 12 -11.9 133.7 90 125 symmetric - - symmetric - - Image
2006 4 24 18 -12.5 132.9 50 70 symmetric - - symmetric - - Image
2006 4 24 21 -12.5 132.0 30 45 symmetric - - symmetric - - Image
2006 4 25 00 -12.4 131.4 25 35 symmetric - - symmetric - - Image
2006 4 25 06 -12.2 130.7 25 35 symmetric - - symmetric - - Image
2006 4 25 12 -12.3 130.5 30 45 symmetric - - symmetric - - Image
2006 4 25 18 -12.6 130.2 30 45 symmetric - - symmetric - - Image
2006 4 26 00 -13.1 129.6 30 45 symmetric - - symmetric - - Image
2006 4 26 06 -13.5 129.4 30 45 symmetric - - symmetric - - Image
2006 4 26 12 -13.9 129.9 20 30 symmetric - - symmetric - - Image
2006 4 26 18 -14.5 130.3 20 30 symmetric - - symmetric - - Image
2006 4 27 00 -15.3 130.8 20 30 symmetric - - symmetric - - Image
2006 4 27 06 -17.0 131.4 20 30 symmetric - - symmetric - - Image
2006 4 27 12 -17.4 131.9 20 30 symmetric - - symmetric - - Image
2006 4 27 18 -17.7 132.6 20 30 symmetric - - symmetric - - Image
< Cyclone 200620 2006 Season Cyclone 200801 >

Help